Time;durP1;ratioP1;P1;durP2;ratioP2;P2;SDS_P1;SDS_P2;PMS_P1;PMS_P2;Temp;Humidity;BMP_temperature;BMP_pressure;BME280_temperature;BME280_humidity;BME280_pressure;Samples;Min_cycle;Max_cycle;Signal;HPM_P1;HPM_P2
2021/10/16 00:02:13;;;;;;;1.85;0.43;;;;;;;;;;4991395;28;20034;-88
2021/10/16 00:04:38;;;;;;;3.03;0.60;;;;;;;;;;4991881;28;20495;-88
2021/10/16 00:07:04;;;;;;;0.85;0.50;;;;;;;;;;4991758;28;20058;-89
2021/10/16 00:09:29;;;;;;;0.28;0.20;;;;;;;;;;4991234;28;20049;-88
2021/10/16 00:11:54;;;;;;;1.17;0.30;;;;;;;;;;4991120;28;20049;-88
2021/10/16 00:14:20;;;;;;;2.70;0.30;;;;;;;;;;4997262;28;20023;-88
2021/10/16 00:16:45;;;;;;;0.32;0.30;;;;;;;;;;4990060;28;20037;-89
2021/10/16 00:19:11;;;;;;;0.70;0.30;;;;;;;;;;4989772;28;20096;-88
2021/10/16 00:21:38;;;;;;;2.53;0.65;;;;;;;;;;4990332;28;20034;-88
2021/10/16 00:24:04;;;;;;;1.50;0.40;;;;;;;;;;4991117;28;20041;-88
2021/10/16 00:26:30;;;;;;;0.47;0.30;;;;;;;;;;4989864;28;20088;-88
2021/10/16 00:28:55;;;;;;;4.20;0.57;;;;;;;;;;4990825;28;20034;-88
2021/10/16 00:31:20;;;;;;;2.45;0.47;;;;;;;;;;4991173;28;20081;-88
2021/10/16 00:33:46;;;;;;;2.75;0.45;;;;;;;;;;4991164;28;20026;-88
2021/10/16 00:36:11;;;;;;;1.90;0.40;;;;;;;;;;4988758;28;20046;-88
2021/10/16 00:38:37;;;;;;;1.27;0.50;;;;;;;;;;4991248;28;20030;-88
2021/10/16 00:41:02;;;;;;;1.13;0.40;;;;;;;;;;4991130;28;20104;-88
2021/10/16 00:43:27;;;;;;;1.92;0.75;;;;;;;;;;4989459;28;20026;-88
2021/10/16 00:45:53;;;;;;;0.80;0.30;;;;;;;;;;4989757;28;20065;-88
2021/10/16 00:48:18;;;;;;;0.30;0.30;;;;;;;;;;4990776;28;20035;-88
2021/10/16 00:50:44;;;;;;;0.93;0.40;;;;;;;;;;4989449;28;20541;-87
2021/10/16 00:53:12;;;;;;;0.30;0.30;;;;;;;;;;4990511;28;20019;-88
2021/10/16 00:55:37;;;;;;;0.50;0.40;;;;;;;;;;4976262;28;20085;-88
2021/10/16 00:58:02;;;;;;;2.30;0.82;;;;;;;;;;4991289;28;20022;-87
2021/10/16 01:00:28;;;;;;;1.38;0.57;;;;;;;;;;4990998;28;20661;-87
2021/10/16 01:02:53;;;;;;;2.70;0.55;;;;;;;;;;4989882;28;20026;-88
2021/10/16 01:05:19;;;;;;;0.98;0.40;;;;;;;;;;4990802;28;20039;-89
2021/10/16 01:07:44;;;;;;;1.13;0.38;;;;;;;;;;4989044;28;20030;-88
2021/10/16 01:10:12;;;;;;;1.10;0.50;;;;;;;;;;4989248;28;20041;-88
2021/10/16 01:12:39;;;;;;;2.17;0.43;;;;;;;;;;4989489;28;20084;-88
2021/10/16 01:15:10;;;;;;;1.55;0.40;;;;;;;;;;4990436;28;20031;-88
2021/10/16 01:17:37;;;;;;;2.80;0.43;;;;;;;;;;4990665;28;20034;-88
2021/10/16 01:20:12;;;;;;;2.42;0.60;;;;;;;;;;4982443;28;20027;-87
2021/10/16 01:22:40;;;;;;;1.35;0.50;;;;;;;;;;4989363;28;20026;-88
2021/10/16 01:25:12;;;;;;;0.85;0.40;;;;;;;;;;4990307;28;20081;-88
2021/10/16 01:27:38;;;;;;;1.88;0.52;;;;;;;;;;4993148;28;20109;-88
2021/10/16 01:30:09;;;;;;;0.90;0.50;;;;;;;;;;4994756;28;20030;-88
2021/10/16 01:32:35;;;;;;;2.20;0.55;;;;;;;;;;4992866;28;20030;-88
2021/10/16 01:35:05;;;;;;;1.75;0.40;;;;;;;;;;4993987;28;20065;-89
2021/10/16 01:37:31;;;;;;;1.38;0.70;;;;;;;;;;4993137;28;20026;-88
2021/10/16 01:39:57;;;;;;;1.45;0.55;;;;;;;;;;4993074;28;20084;-87
2021/10/16 01:42:22;;;;;;;2.00;0.43;;;;;;;;;;4993058;28;20053;-88
2021/10/16 01:44:48;;;;;;;1.27;0.50;;;;;;;;;;4993982;28;20469;-87
2021/10/16 01:47:13;;;;;;;2.03;0.50;;;;;;;;;;4992734;28;20129;-88
2021/10/16 01:49:38;;;;;;;2.38;0.50;;;;;;;;;;4992953;28;20042;-87
2021/10/16 01:52:05;;;;;;;0.77;0.50;;;;;;;;;;4993972;28;20113;-88
2021/10/16 01:54:30;;;;;;;0.93;0.20;;;;;;;;;;4993859;28;20452;-87
2021/10/16 01:56:56;;;;;;;0.93;0.55;;;;;;;;;;4994266;28;20057;-88
2021/10/16 01:59:23;;;;;;;0.98;0.40;;;;;;;;;;4992552;28;20032;-88
2021/10/16 02:01:49;;;;;;;2.63;0.50;;;;;;;;;;4992748;28;20815;-88
2021/10/16 02:04:15;;;;;;;0.60;0.40;;;;;;;;;;4993775;28;20106;-87
2021/10/16 02:06:42;;;;;;;1.60;0.50;;;;;;;;;;4992577;28;20444;-88
2021/10/16 02:09:08;;;;;;;1.38;0.40;;;;;;;;;;4993586;28;20068;-87
2021/10/16 02:11:34;;;;;;;3.97;0.43;;;;;;;;;;4993342;28;20042;-88
2021/10/16 02:14:00;;;;;;;3.45;0.80;;;;;;;;;;4993673;28;20092;-88
2021/10/16 02:16:27;;;;;;;1.10;0.52;;;;;;;;;;4992976;28;20062;-88
2021/10/16 02:18:53;;;;;;;1.20;0.40;;;;;;;;;;4992229;28;20061;-88
2021/10/16 02:21:18;;;;;;;0.93;0.40;;;;;;;;;;4993480;28;20073;-88
2021/10/16 02:23:44;;;;;;;0.60;0.40;;;;;;;;;;4992458;28;20100;-88
2021/10/16 02:26:09;;;;;;;2.20;0.60;;;;;;;;;;4993681;28;20045;-87
2021/10/16 02:28:35;;;;;;;0.30;0.30;;;;;;;;;;4992165;28;20065;-88
2021/10/16 02:31:00;;;;;;;1.58;0.60;;;;;;;;;;4993644;28;20038;-88
2021/10/16 02:33:26;;;;;;;2.33;0.50;;;;;;;;;;4991619;28;20030;-88
2021/10/16 02:35:51;;;;;;;1.27;0.40;;;;;;;;;;4991894;28;20108;-88
2021/10/16 02:38:16;;;;;;;0.43;0.32;;;;;;;;;;4991631;28;20065;-88
2021/10/16 02:40:42;;;;;;;0.65;0.50;;;;;;;;;;4993221;28;20031;-88
2021/10/16 02:43:07;;;;;;;1.08;0.50;;;;;;;;;;4993042;28;20029;-88
2021/10/16 02:45:33;;;;;;;5.43;0.60;;;;;;;;;;4992846;28;20030;-88
2021/10/16 02:47:58;;;;;;;1.40;0.50;;;;;;;;;;4992972;28;20034;-88
2021/10/16 02:50:23;;;;;;;1.50;0.57;;;;;;;;;;4991936;28;20026;-87
2021/10/16 02:52:49;;;;;;;2.85;0.60;;;;;;;;;;4993012;28;20046;-88
2021/10/16 02:55:16;;;;;;;1.85;0.63;;;;;;;;;;4991910;28;20026;-88
2021/10/16 02:57:42;;;;;;;2.55;0.68;;;;;;;;;;4993018;28;20593;-88
2021/10/16 03:00:08;;;;;;;4.35;0.50;;;;;;;;;;4992681;28;20041;-89
2021/10/16 03:02:34;;;;;;;1.73;0.65;;;;;;;;;;4992372;28;20022;-89
2021/10/16 03:05:00;;;;;;;1.98;0.55;;;;;;;;;;4993065;28;20030;-89
2021/10/16 03:07:25;;;;;;;2.85;0.70;;;;;;;;;;4992658;28;20542;-88
2021/10/16 03:09:50;;;;;;;0.95;0.60;;;;;;;;;;4992368;28;20030;-88
2021/10/16 03:12:16;;;;;;;0.73;0.50;;;;;;;;;;4992370;28;20461;-88
2021/10/16 03:14:41;;;;;;;4.57;0.68;;;;;;;;;;4992459;28;20089;-89
2021/10/16 03:17:06;;;;;;;1.88;0.60;;;;;;;;;;4992332;28;20173;-89
2021/10/16 03:19:32;;;;;;;2.25;0.60;;;;;;;;;;4991829;28;20022;-87
2021/10/16 03:21:57;;;;;;;1.55;0.45;;;;;;;;;;4991400;28;20058;-89
2021/10/16 03:24:23;;;;;;;2.05;0.60;;;;;;;;;;4992518;28;20536;-89
2021/10/16 03:26:49;;;;;;;2.03;0.73;;;;;;;;;;4992311;28;20030;-88
2021/10/16 03:29:14;;;;;;;1.63;0.50;;;;;;;;;;4991993;28;20037;-88
2021/10/16 03:31:40;;;;;;;2.70;0.50;;;;;;;;;;4992390;28;20030;-89
2021/10/16 03:34:05;;;;;;;1.45;0.55;;;;;;;;;;4990997;28;20049;-88
2021/10/16 03:36:31;;;;;;;3.38;0.50;;;;;;;;;;4991871;28;20047;-90
2021/10/16 03:38:56;;;;;;;1.15;0.50;;;;;;;;;;4991004;28;20121;-88
2021/10/16 03:41:22;;;;;;;3.63;0.60;;;;;;;;;;4991836;28;20026;-89
2021/10/16 03:43:47;;;;;;;2.38;0.70;;;;;;;;;;4992102;28;20520;-88
2021/10/16 03:46:12;;;;;;;2.05;0.90;;;;;;;;;;4992286;28;20026;-88
2021/10/16 03:48:38;;;;;;;1.73;0.60;;;;;;;;;;4991932;28;20045;-89
2021/10/16 03:51:03;;;;;;;1.25;0.60;;;;;;;;;;4986995;28;20645;-89
2021/10/16 03:53:29;;;;;;;4.20;0.70;;;;;;;;;;4990306;28;20026;-88
2021/10/16 03:55:54;;;;;;;3.67;0.90;;;;;;;;;;4991933;28;20034;-89
2021/10/16 03:58:19;;;;;;;2.67;0.77;;;;;;;;;;4991738;28;20065;-88
2021/10/16 04:00:48;;;;;;;1.73;0.77;;;;;;;;;;4991254;28;20101;-88
2021/10/16 04:03:14;;;;;;;4.57;0.82;;;;;;;;;;4981198;28;20177;-88
2021/10/16 04:05:39;;;;;;;1.30;0.60;;;;;;;;;;4984049;28;20125;-88
2021/10/16 04:08:05;;;;;;;3.45;0.57;;;;;;;;;;4991528;28;20037;-89
2021/10/16 04:10:31;;;;;;;2.13;0.60;;;;;;;;;;4991208;28;20444;-88
2021/10/16 04:12:56;;;;;;;3.95;0.80;;;;;;;;;;4991376;28;20023;-88
2021/10/16 04:15:22;;;;;;;1.38;0.50;;;;;;;;;;4991535;28;20026;-88
2021/10/16 04:17:49;;;;;;;4.53;0.80;;;;;;;;;;4990623;28;20030;-89
2021/10/16 04:20:15;;;;;;;3.20;0.90;;;;;;;;;;4991261;28;20030;-89
2021/10/16 04:22:40;;;;;;;1.08;0.55;;;;;;;;;;4991276;28;20108;-88
2021/10/16 04:25:06;;;;;;;3.80;0.60;;;;;;;;;;4991132;28;20046;-88
2021/10/16 04:27:31;;;;;;;4.57;0.60;;;;;;;;;;4990256;28;20068;-88
2021/10/16 04:29:57;;;;;;;1.60;0.80;;;;;;;;;;4991198;28;20053;-88
2021/10/16 04:32:22;;;;;;;1.63;0.70;;;;;;;;;;4991075;28;20022;-88
2021/10/16 04:34:47;;;;;;;2.35;0.80;;;;;;;;;;4996353;28;20138;-88
2021/10/16 04:37:15;;;;;;;3.22;1.08;;;;;;;;;;4990167;28;20030;-88
2021/10/16 04:39:40;;;;;;;2.80;0.80;;;;;;;;;;4990662;28;20060;-88
2021/10/16 04:42:06;;;;;;;2.65;0.70;;;;;;;;;;4991086;28;20504;-88
2021/10/16 04:44:32;;;;;;;4.45;0.80;;;;;;;;;;4990961;28;20026;-88
2021/10/16 04:46:58;;;;;;;1.13;0.50;;;;;;;;;;4991071;28;20022;-89
2021/10/16 04:49:23;;;;;;;1.98;0.63;;;;;;;;;;4990648;28;20026;-88
2021/10/16 04:51:49;;;;;;;1.85;0.73;;;;;;;;;;4989872;28;20485;-88
2021/10/16 04:54:14;;;;;;;2.33;0.85;;;;;;;;;;4991099;28;20026;-89
2021/10/16 04:56:40;;;;;;;2.55;0.60;;;;;;;;;;4991131;28;20539;-89
2021/10/16 04:59:05;;;;;;;1.83;0.63;;;;;;;;;;4991611;28;20030;-89
2021/10/16 05:01:30;;;;;;;3.80;0.80;;;;;;;;;;4986255;28;20027;-89
2021/10/16 05:03:56;;;;;;;1.23;0.65;;;;;;;;;;4989203;28;20029;-89
2021/10/16 05:06:21;;;;;;;1.73;0.70;;;;;;;;;;4994221;28;20026;-89
2021/10/16 05:08:47;;;;;;;1.52;0.50;;;;;;;;;;4995005;28;20472;-87
2021/10/16 05:11:13;;;;;;;1.75;0.70;;;;;;;;;;4993653;28;20030;-88
2021/10/16 05:13:38;;;;;;;1.70;0.60;;;;;;;;;;4993284;28;20033;-88
2021/10/16 05:16:04;;;;;;;1.10;0.60;;;;;;;;;;4994865;28;20030;-88
2021/10/16 05:18:31;;;;;;;2.67;0.65;;;;;;;;;;4994528;28;20041;-88
2021/10/16 05:20:57;;;;;;;3.40;0.73;;;;;;;;;;4993621;28;20121;-88
2021/10/16 05:23:22;;;;;;;1.33;0.57;;;;;;;;;;4992712;28;20105;-89
2021/10/16 05:25:48;;;;;;;1.63;0.60;;;;;;;;;;4989698;28;20037;-88
2021/10/16 05:28:13;;;;;;;1.40;0.60;;;;;;;;;;4993170;28;20029;-88
2021/10/16 05:30:39;;;;;;;1.40;0.40;;;;;;;;;;4993408;28;20433;-88
2021/10/16 05:33:04;;;;;;;2.47;1.02;;;;;;;;;;4994132;28;20030;-88
2021/10/16 05:35:30;;;;;;;1.60;0.60;;;;;;;;;;4993695;28;20031;-88
2021/10/16 05:37:55;;;;;;;0.85;0.57;;;;;;;;;;4993905;28;20030;-88
2021/10/16 05:40:21;;;;;;;2.88;0.80;;;;;;;;;;4994454;28;20381;-88
2021/10/16 05:42:46;;;;;;;2.65;0.80;;;;;;;;;;4994177;28;20034;-88
2021/10/16 05:45:12;;;;;;;4.60;0.90;;;;;;;;;;4985902;28;20026;-88
2021/10/16 05:47:38;;;;;;;1.70;0.70;;;;;;;;;;4993534;28;20026;-88
2021/10/16 05:50:05;;;;;;;3.28;0.60;;;;;;;;;;4993525;28;20075;-88
2021/10/16 05:52:30;;;;;;;3.50;0.77;;;;;;;;;;4992778;28;20030;-88
2021/10/16 05:54:56;;;;;;;4.05;0.70;;;;;;;;;;4993960;28;20025;-89
2021/10/16 05:57:21;;;;;;;3.33;0.80;;;;;;;;;;4993204;28;20314;-88
2021/10/16 05:59:46;;;;;;;6.07;0.80;;;;;;;;;;4993343;28;20034;-88
2021/10/16 06:02:12;;;;;;;2.58;0.80;;;;;;;;;;4992655;28;20030;-88
2021/10/16 06:04:37;;;;;;;3.20;0.90;;;;;;;;;;4990808;28;20062;-89
2021/10/16 06:07:03;;;;;;;4.80;1.08;;;;;;;;;;4993362;28;20023;-88
2021/10/16 06:09:28;;;;;;;1.83;0.60;;;;;;;;;;4993466;28;20042;-88
2021/10/16 06:11:54;;;;;;;8.10;1.02;;;;;;;;;;4993953;28;20030;-88
2021/10/16 06:14:19;;;;;;;2.30;0.80;;;;;;;;;;4993467;28;20511;-88
2021/10/16 06:16:44;;;;;;;3.65;0.80;;;;;;;;;;4992309;28;20041;-87
2021/10/16 06:19:10;;;;;;;6.80;1.10;;;;;;;;;;4992374;28;20421;-88
2021/10/16 06:21:35;;;;;;;4.30;1.25;;;;;;;;;;4993550;28;20033;-88
2021/10/16 06:24:01;;;;;;;4.38;1.27;;;;;;;;;;4993632;28;20101;-88
2021/10/16 06:26:26;;;;;;;4.82;0.90;;;;;;;;;;4993332;28;20023;-88
2021/10/16 06:28:51;;;;;;;2.97;1.00;;;;;;;;;;4991983;28;20030;-88
2021/10/16 06:31:17;;;;;;;2.47;0.80;;;;;;;;;;4993356;28;20037;-88
2021/10/16 06:33:42;;;;;;;8.15;1.73;;;;;;;;;;4992264;28;20507;-89
2021/10/16 06:36:07;;;;;;;6.30;1.27;;;;;;;;;;4993340;28;20050;-88
2021/10/16 06:38:33;;;;;;;4.40;0.90;;;;;;;;;;4991853;28;20037;-88
2021/10/16 06:40:59;;;;;;;5.63;1.15;;;;;;;;;;4993479;28;20034;-89
2021/10/16 06:43:24;;;;;;;4.03;0.95;;;;;;;;;;5008687;28;20070;-88
2021/10/16 06:45:50;;;;;;;5.05;1.10;;;;;;;;;;4992779;28;20027;-89
2021/10/16 06:48:15;;;;;;;7.72;1.45;;;;;;;;;;4993045;28;20105;-88
2021/10/16 06:50:41;;;;;;;6.75;1.17;;;;;;;;;;4993019;28;20046;-89
2021/10/16 06:53:07;;;;;;;5.88;1.00;;;;;;;;;;4991836;28;20033;-89
2021/10/16 06:55:32;;;;;;;5.20;1.30;;;;;;;;;;4992056;28;20112;-87
2021/10/16 06:57:57;;;;;;;3.53;1.08;;;;;;;;;;4993297;28;20105;-88
2021/10/16 07:00:23;;;;;;;5.68;1.10;;;;;;;;;;4993313;28;20030;-88
2021/10/16 07:02:48;;;;;;;8.05;2.25;;;;;;;;;;4991632;28;20034;-88
2021/10/16 07:05:14;;;;;;;5.07;1.70;;;;;;;;;;4993049;28;20483;-88
2021/10/16 07:07:39;;;;;;;8.23;1.45;;;;;;;;;;4991790;28;20030;-89
2021/10/16 07:10:05;;;;;;;3.55;0.90;;;;;;;;;;5007712;28;20037;-89
2021/10/16 07:12:33;;;;;;;7.28;1.35;;;;;;;;;;4991396;28;20038;-87
2021/10/16 07:14:58;;;;;;;4.03;1.13;;;;;;;;;;4991266;28;20061;-90
2021/10/16 07:17:24;;;;;;;5.55;0.93;;;;;;;;;;5005791;28;20089;-89
2021/10/16 07:19:50;;;;;;;5.18;1.00;;;;;;;;;;4991508;28;20062;-89
2021/10/16 07:22:20;;;;;;;3.45;1.33;;;;;;;;;;4992803;28;20026;-87
2021/10/16 07:24:45;;;;;;;4.65;1.17;;;;;;;;;;4991574;28;20488;-87
2021/10/16 07:27:11;;;;;;;7.07;1.55;;;;;;;;;;4990926;28;20097;-89
2021/10/16 07:29:37;;;;;;;8.13;1.25;;;;;;;;;;4992511;28;20507;-89
2021/10/16 07:32:03;;;;;;;8.73;1.20;;;;;;;;;;4991985;28;20080;-89
2021/10/16 07:34:28;;;;;;;8.15;1.25;;;;;;;;;;4990930;28;20125;-88
2021/10/16 07:36:54;;;;;;;7.95;1.60;;;;;;;;;;4991194;28;20121;-90
2021/10/16 07:39:19;;;;;;;6.97;1.45;;;;;;;;;;4991160;28;20444;-88
2021/10/16 07:41:47;;;;;;;2.65;1.13;;;;;;;;;;4992225;28;20037;-87
2021/10/16 07:44:14;;;;;;;6.30;1.30;;;;;;;;;;4992616;28;20118;-88
2021/10/16 07:46:42;;;;;;;5.60;1.02;;;;;;;;;;4991197;28;20077;-89
2021/10/16 07:49:07;;;;;;;10.23;1.60;;;;;;;;;;4992361;28;20034;-89
2021/10/16 07:51:33;;;;;;;5.97;0.95;;;;;;;;;;4991758;28;20509;-88
2021/10/16 07:53:59;;;;;;;5.97;1.20;;;;;;;;;;4991336;28;20030;-88
2021/10/16 07:56:24;;;;;;;9.30;1.20;;;;;;;;;;4990855;28;20026;-88
2021/10/16 07:58:50;;;;;;;8.95;1.58;;;;;;;;;;4990624;28;20038;-88
2021/10/16 08:01:15;;;;;;;8.60;1.65;;;;;;;;;;4991825;28;20406;-89
2021/10/16 08:03:41;;;;;;;8.13;1.63;;;;;;;;;;4991809;28;20022;-88
2021/10/16 08:06:06;;;;;;;7.95;1.23;;;;;;;;;;4990325;28;20026;-89
2021/10/16 08:08:32;;;;;;;9.57;1.38;;;;;;;;;;4985291;28;20042;-88
2021/10/16 08:10:57;;;;;;;4.95;1.30;;;;;;;;;;4986369;28;20527;-89
2021/10/16 08:13:23;;;;;;;9.98;1.40;;;;;;;;;;4975571;28;20065;-88
2021/10/16 08:15:49;;;;;;;10.35;1.52;;;;;;;;;;4990255;28;20031;-88
2021/10/16 08:18:15;;;;;;;7.45;1.52;;;;;;;;;;4990323;28;20027;-88
2021/10/16 08:20:40;;;;;;;6.72;1.20;;;;;;;;;;4991456;28;20028;-87
2021/10/16 08:23:07;;;;;;;10.43;1.45;;;;;;;;;;4991577;28;20501;-89
2021/10/16 08:25:33;;;;;;;5.57;1.50;;;;;;;;;;4991075;28;20034;-89
2021/10/16 08:28:05;;;;;;;6.72;1.55;;;;;;;;;;4991414;28;20022;-89
2021/10/16 08:30:30;;;;;;;3.88;1.42;;;;;;;;;;4990136;28;20481;-88
2021/10/16 08:32:56;;;;;;;11.57;1.73;;;;;;;;;;4991614;28;20077;-89
2021/10/16 08:35:21;;;;;;;8.70;1.33;;;;;;;;;;4990938;28;20509;-88
2021/10/16 08:37:47;;;;;;;11.63;1.75;;;;;;;;;;4990987;28;20038;-89
2021/10/16 08:40:13;;;;;;;7.18;1.38;;;;;;;;;;4990486;28;20076;-88
2021/10/16 08:42:38;;;;;;;7.97;1.52;;;;;;;;;;4990536;28;20027;-90
2021/10/16 08:45:05;;;;;;;9.57;1.60;;;;;;;;;;4991131;28;20184;-88
2021/10/16 08:47:35;;;;;;;15.93;2.17;;;;;;;;;;4990886;28;20026;-89
2021/10/16 08:50:03;;;;;;;7.82;1.35;;;;;;;;;;4990012;28;20072;-90
2021/10/16 08:52:28;;;;;;;9.90;1.65;;;;;;;;;;4989954;28;20370;-88
2021/10/16 08:54:57;;;;;;;6.43;1.60;;;;;;;;;;4990945;28;20025;-89
2021/10/16 08:57:22;;;;;;;7.38;1.23;;;;;;;;;;4985990;28;20026;-89
2021/10/16 08:59:48;;;;;;;8.18;1.40;;;;;;;;;;4980058;28;20022;-89
2021/10/16 09:02:13;;;;;;;9.07;1.45;;;;;;;;;;4982810;28;20405;-89
2021/10/16 09:04:39;;;;;;;4.32;0.65;;;;;;;;;;4994341;28;20038;-90
2021/10/16 09:07:21;;;;;;;9.85;1.40;;;;;;;;;;4989189;28;20018;-89
2021/10/16 09:09:48;;;;;;;7.50;1.38;;;;;;;;;;4984762;28;20030;-91
2021/10/16 09:12:14;;;;;;;6.80;1.50;;;;;;;;;;4986440;28;20109;-90
2021/10/16 09:14:50;;;;;;;5.85;1.40;;;;;;;;;;4991023;28;20113;-90
2021/10/16 09:17:17;;;;;;;7.25;1.13;;;;;;;;;;4984733;28;20430;-89
2021/10/16 09:19:44;;;;;;;8.00;1.50;;;;;;;;;;4989051;28;20026;-89
2021/10/16 09:22:12;;;;;;;10.10;1.75;;;;;;;;;;4990141;28;20053;-91
2021/10/16 09:24:43;;;;;;;8.43;1.85;;;;;;;;;;4990809;28;20026;-91
2021/10/16 09:27:14;;;;;;;7.07;1.67;;;;;;;;;;4989508;28;20030;-90
2021/10/16 09:29:49;;;;;;;8.75;1.52;;;;;;;;;;4991311;28;20109;-91
2021/10/16 09:32:18;;;;;;;11.40;1.98;;;;;;;;;;5002773;28;20074;-89
2021/10/16 09:34:46;;;;;;;10.18;1.77;;;;;;;;;;5004655;28;20045;-89
2021/10/16 09:37:12;;;;;;;8.95;1.63;;;;;;;;;;4988784;28;20038;-90
2021/10/16 09:39:41;;;;;;;7.50;1.60;;;;;;;;;;4989070;28;20025;-90
2021/10/16 09:42:09;;;;;;;7.93;1.55;;;;;;;;;;4995568;28;20491;-92
2021/10/16 09:44:38;;;;;;;9.40;1.55;;;;;;;;;;4992204;28;20025;-89
2021/10/16 09:47:15;;;;;;;11.52;1.50;;;;;;;;;;4992326;28;20030;-89
2021/10/16 09:49:43;;;;;;;10.48;1.70;;;;;;;;;;4991296;28;20038;-88
2021/10/16 09:52:12;;;;;;;7.22;1.45;;;;;;;;;;4995669;28;20081;-88
2021/10/16 09:54:39;;;;;;;5.97;1.60;;;;;;;;;;4994496;28;20034;-90
2021/10/16 09:57:07;;;;;;;9.20;1.83;;;;;;;;;;4995158;28;20074;-90
2021/10/16 09:59:34;;;;;;;9.80;1.70;;;;;;;;;;4994668;28;20033;-91
2021/10/16 10:02:03;;;;;;;12.65;2.47;;;;;;;;;;4995260;28;20049;-92
2021/10/16 10:04:31;;;;;;;8.85;1.75;;;;;;;;;;4996311;28;20036;-92
2021/10/16 10:06:59;;;;;;;15.25;2.58;;;;;;;;;;4994475;28;20045;-90
2021/10/16 10:09:26;;;;;;;7.00;1.52;;;;;;;;;;4993677;28;20030;-90
2021/10/16 10:11:53;;;;;;;8.73;1.70;;;;;;;;;;4993409;28;20074;-90
2021/10/16 10:14:20;;;;;;;10.70;2.70;;;;;;;;;;4993352;28;20018;-92
2021/10/16 10:16:49;;;;;;;10.30;1.80;;;;;;;;;;4993469;28;20069;-91
2021/10/16 10:19:16;;;;;;;9.15;1.65;;;;;;;;;;4993919;28;20118;-89
2021/10/16 10:21:42;;;;;;;10.65;2.25;;;;;;;;;;4977406;28;20468;-90
2021/10/16 10:24:10;;;;;;;10.73;1.90;;;;;;;;;;4990517;28;20027;-91
2021/10/16 10:26:38;;;;;;;8.60;1.38;;;;;;;;;;4991738;28;20522;-91
2021/10/16 10:29:17;;;;;;;9.35;1.63;;;;;;;;;;4990645;28;20037;-92
2021/10/16 10:31:45;;;;;;;10.20;1.70;;;;;;;;;;5011675;28;20018;-89
2021/10/16 10:34:12;;;;;;;10.32;1.83;;;;;;;;;;4997084;28;20428;-92
2021/10/16 10:36:52;;;;;;;11.50;1.92;;;;;;;;;;4992757;28;20042;-91
2021/10/16 10:39:33;;;;;;;13.05;2.70;;;;;;;;;;4972509;28;20122;-91
2021/10/16 10:42:13;;;;;;;10.48;1.70;;;;;;;;;;5003640;28;20030;-91
2021/10/16 10:44:45;;;;;;;6.90;1.50;;;;;;;;;;4993618;28;20117;-91
2021/10/16 10:47:19;;;;;;;10.18;2.38;;;;;;;;;;5008804;28;20076;-90
2021/10/16 10:49:45;;;;;;;8.90;1.95;;;;;;;;;;5008473;28;20511;-91
2021/10/16 10:52:11;;;;;;;8.35;1.83;;;;;;;;;;4993622;28;20058;-90
2021/10/16 10:54:37;;;;;;;10.30;1.75;;;;;;;;;;4992083;28;20026;-91
2021/10/16 10:57:03;;;;;;;8.35;1.40;;;;;;;;;;5007686;28;20029;-90
2021/10/16 10:59:48;;;;;;;10.10;2.05;;;;;;;;;;4990288;28;20417;-89
2021/10/16 11:02:28;;;;;;;12.77;2.20;;;;;;;;;;4992596;28;20089;-92
2021/10/16 11:04:55;;;;;;;9.15;1.70;;;;;;;;;;4991129;28;20026;-90
2021/10/16 11:07:33;;;;;;;12.77;1.50;;;;;;;;;;4991720;28;20022;-89
2021/10/16 11:09:59;;;;;;;10.45;1.45;;;;;;;;;;4992336;28;20034;-90
2021/10/16 11:12:33;;;;;;;10.05;2.40;;;;;;;;;;4991322;28;20026;-89
2021/10/16 11:14:59;;;;;;;;;;;;;;;;;;4993689;28;20060;-89
2021/10/16 11:17:33;;;;;;;7.43;1.40;;;;;;;;;;4990848;28;19924;-90
2021/10/16 11:19:58;;;;;;;6.32;1.42;;;;;;;;;;4992059;28;20064;-90
2021/10/16 11:22:42;;;;;;;9.23;1.40;;;;;;;;;;4991801;28;20057;-89
2021/10/16 11:25:08;;;;;;;11.80;1.90;;;;;;;;;;4992049;28;20089;-91
2021/10/16 11:27:34;;;;;;;6.63;1.95;;;;;;;;;;4991672;28;20038;-89
2021/10/16 11:30:02;;;;;;;10.02;1.60;;;;;;;;;;4990401;28;20547;-90
2021/10/16 11:32:31;;;;;;;7.70;1.95;;;;;;;;;;4998837;28;20052;-90
2021/10/16 11:35:07;;;;;;;8.57;1.58;;;;;;;;;;4995944;28;20073;-89
2021/10/16 11:37:40;;;;;;;11.70;1.70;;;;;;;;;;4986493;28;20400;-90
2021/10/16 11:40:10;;;;;;;5.35;1.50;;;;;;;;;;4994462;28;20034;-90
2021/10/16 11:42:37;;;;;;;11.43;2.60;;;;;;;;;;5007611;28;20033;-89
2021/10/16 11:45:10;;;;;;;10.15;2.38;;;;;;;;;;5001046;28;20026;-91
2021/10/16 11:47:37;;;;;;;8.43;1.53;;;;;;;;;;4991944;28;20428;-90
2021/10/16 11:50:14;;;;;;;11.90;1.58;;;;;;;;;;5007462;28;20283;-89
2021/10/16 11:52:41;;;;;;;9.52;2.05;;;;;;;;;;4991697;28;20113;-91
2021/10/16 11:55:19;;;;;;;8.40;1.67;;;;;;;;;;4990972;28;20037;-90
2021/10/16 11:57:45;;;;;;;9.00;1.58;;;;;;;;;;4995259;28;20038;-91
2021/10/16 12:00:27;;;;;;;8.75;1.92;;;;;;;;;;4974850;28;20125;-90
2021/10/16 12:02:57;;;;;;;7.45;1.65;;;;;;;;;;4992736;28;20034;-89
2021/10/16 12:05:25;;;;;;;6.90;1.50;;;;;;;;;;4991058;28;20034;-89
2021/10/16 12:07:51;;;;;;;8.73;1.73;;;;;;;;;;4990939;28;20018;-91
2021/10/16 12:10:27;;;;;;;6.93;1.42;;;;;;;;;;4990400;28;20440;-89
2021/10/16 12:13:04;;;;;;;11.35;1.80;;;;;;;;;;4991441;28;20026;-89
2021/10/16 12:15:44;;;;;;;6.22;1.70;;;;;;;;;;4992388;28;20018;-90
2021/10/16 12:18:19;;;;;;;6.70;1.52;;;;;;;;;;4991684;28;20026;-90
2021/10/16 12:20:52;;;;;;;8.75;1.77;;;;;;;;;;4992164;28;20397;-92
2021/10/16 12:23:17;;;;;;;7.40;1.52;;;;;;;;;;4992376;28;20054;-91
2021/10/16 12:25:51;;;;;;;3.97;1.15;;;;;;;;;;4992388;28;20116;-92
2021/10/16 12:28:17;;;;;;;;;;;;;;;;;;4987719;28;20033;-92
2021/10/16 12:30:57;;;;;;;7.50;1.17;;;;;;;;;;4991973;28;19918;-91
2021/10/16 12:33:23;;;;;;;9.32;1.80;;;;;;;;;;4992389;28;20026;-91
2021/10/16 12:35:56;;;;;;;7.82;1.73;;;;;;;;;;4990799;28;20042;-88
2021/10/16 12:38:21;;;;;;;9.80;1.48;;;;;;;;;;4990961;28;20026;-90
2021/10/16 12:40:47;;;;;;;10.88;1.98;;;;;;;;;;4990583;28;20516;-90
2021/10/16 12:43:25;;;;;;;6.40;1.77;;;;;;;;;;4990804;28;20027;-91
2021/10/16 12:45:51;;;;;;;9.07;1.83;;;;;;;;;;4991946;28;20476;-89
2021/10/16 12:48:30;;;;;;;12.20;1.83;;;;;;;;;;4991285;28;20065;-90
2021/10/16 12:50:58;;;;;;;7.43;1.40;;;;;;;;;;4989715;28;20042;-92
2021/10/16 12:53:24;;;;;;;7.43;1.55;;;;;;;;;;4990589;28;20440;-90
2021/10/16 12:55:50;;;;;;;10.45;1.52;;;;;;;;;;4997974;28;20113;-91
2021/10/16 12:58:16;;;;;;;7.82;1.20;;;;;;;;;;4997798;28;20122;-89
2021/10/16 13:00:47;;;;;;;8.55;1.77;;;;;;;;;;4990530;28;20467;-90
2021/10/16 13:03:14;;;;;;;9.40;1.73;;;;;;;;;;4992161;28;20105;-90
2021/10/16 13:05:40;;;;;;;5.15;1.35;;;;;;;;;;4991116;28;20559;-90
2021/10/16 13:08:07;;;;;;;9.65;1.40;;;;;;;;;;4990591;28;20034;-91
2021/10/16 13:10:33;;;;;;;8.18;1.35;;;;;;;;;;4990848;28;20058;-89
2021/10/16 13:12:59;;;;;;;10.80;1.85;;;;;;;;;;4991488;28;20031;-91
2021/10/16 13:15:24;;;;;;;10.55;1.85;;;;;;;;;;4991042;28;20026;-90
2021/10/16 13:17:50;;;;;;;9.18;1.52;;;;;;;;;;4991673;28;20034;-91
2021/10/16 13:20:16;;;;;;;10.20;1.20;;;;;;;;;;4990626;28;20551;-89
2021/10/16 13:22:41;;;;;;;11.52;1.92;;;;;;;;;;4991532;28;20034;-91
2021/10/16 13:25:09;;;;;;;7.05;1.42;;;;;;;;;;4994919;28;20022;-92
2021/10/16 13:27:35;;;;;;;5.78;1.50;;;;;;;;;;4994662;28;20464;-91
2021/10/16 13:30:02;;;;;;;5.60;1.50;;;;;;;;;;4995477;28;20038;-91
2021/10/16 13:32:29;;;;;;;10.40;1.55;;;;;;;;;;4998164;28;20026;-90
2021/10/16 13:34:55;;;;;;;3.95;1.55;;;;;;;;;;4994674;28;20029;-90
2021/10/16 13:37:20;;;;;;;7.72;1.58;;;;;;;;;;4995427;28;20034;-90
2021/10/16 13:39:45;;;;;;;8.27;1.65;;;;;;;;;;4994514;28;20026;-90
2021/10/16 13:42:11;;;;;;;8.20;1.30;;;;;;;;;;4994290;28;20018;-91
2021/10/16 13:44:38;;;;;;;6.35;1.33;;;;;;;;;;4994294;28;20034;-90
2021/10/16 13:47:04;;;;;;;7.15;1.25;;;;;;;;;;4993831;28;20027;-90
2021/10/16 13:49:29;;;;;;;9.35;1.55;;;;;;;;;;4995426;28;20389;-90
2021/10/16 13:51:55;;;;;;;5.95;1.23;;;;;;;;;;4994012;28;20433;-91
2021/10/16 13:54:20;;;;;;;5.32;1.63;;;;;;;;;;4993969;28;20031;-90
2021/10/16 13:56:46;;;;;;;5.22;1.77;;;;;;;;;;4994621;28;20026;-89
2021/10/16 13:59:12;;;;;;;6.43;1.27;;;;;;;;;;4994752;28;20038;-91
2021/10/16 14:01:38;;;;;;;6.90;1.15;;;;;;;;;;4992969;28;20030;-89
2021/10/16 14:04:03;;;;;;;9.23;1.63;;;;;;;;;;4985821;28;20081;-89
2021/10/16 14:06:29;;;;;;;5.82;1.58;;;;;;;;;;4993327;28;20056;-91
2021/10/16 14:08:54;;;;;;;6.00;1.25;;;;;;;;;;4994241;28;20496;-91
2021/10/16 14:11:21;;;;;;;8.60;1.95;;;;;;;;;;4992310;28;20026;-91
2021/10/16 14:13:46;;;;;;;7.95;1.30;;;;;;;;;;4993717;28;20521;-90
2021/10/16 14:16:14;;;;;;;3.92;1.10;;;;;;;;;;4992887;28;20026;-91
2021/10/16 14:18:41;;;;;;;5.78;1.33;;;;;;;;;;4993748;28;20031;-90
2021/10/16 14:21:07;;;;;;;3.45;0.98;;;;;;;;;;4991605;28;20147;-89
2021/10/16 14:23:33;;;;;;;9.02;1.55;;;;;;;;;;4992476;28;20105;-90
2021/10/16 14:25:58;;;;;;;6.97;1.00;;;;;;;;;;4992153;28;20046;-90
2021/10/16 14:28:25;;;;;;;5.38;1.20;;;;;;;;;;4992163;28;20397;-90
2021/10/16 14:30:50;;;;;;;9.65;1.33;;;;;;;;;;4993353;28;20061;-90
2021/10/16 14:33:22;;;;;;;8.63;1.20;;;;;;;;;;4996703;28;20058;-91
2021/10/16 14:35:48;;;;;;;4.40;1.17;;;;;;;;;;5011909;28;20080;-92
2021/10/16 14:38:13;;;;;;;13.32;2.13;;;;;;;;;;4993556;28;20038;-91
2021/10/16 14:40:38;;;;;;;5.85;1.45;;;;;;;;;;4994007;28;20030;-90
2021/10/16 14:43:04;;;;;;;5.18;1.05;;;;;;;;;;4994764;28;20026;-90